| time (UTC) | temp C | wind direction | speed KPH | gust KPH | rain 1hr cm | rain 24hr cm | rain mn cm | humidity % | barometer mb |
| 20260507205017 | 16 | 193 | 1.6 | 4.8 | 0.00 | 0.76 | 0.76 | 52 | 1009.8 |
| 20260507204037 | 16 | 102 | 3.2 | 11.3 | 0.00 | 0.76 | 0.76 | 50 | 1010.1 |
| 20260507203037 | 17 | 157 | 4.8 | 11.3 | 0.00 | 0.76 | 0.76 | 52 | 1009.7 |
| 20260507203018 | 17 | 154 | 3.2 | 9.7 | 0.00 | 0.76 | 0.76 | 52 | 1009.8 |
| 20260507202037 | 16 | 110 | 4.8 | 12.9 | 0.00 | 0.76 | 0.76 | 52 | 1009.7 |
| 20260507202018 | 16 | 105 | 4.8 | 12.9 | 0.00 | 0.76 | 0.76 | 52 | 1009.9 |
| 20260507201116 | 16 | 154 | 4.8 | 12.9 | 0.00 | 0.76 | 0.76 | 54 | 1009.9 |
| 20260507201017 | 16 | 159 | 4.8 | 11.3 | 0.00 | 0.76 | 0.76 | 54 | 1010.1 |
| 20260507200017 | 16 | 104 | 3.2 | 12.9 | 0.00 | 0.76 | 0.76 | 59 | 1010.2 |
| 20260507195036 | 15 | 146 | 3.2 | 11.3 | 0.00 | 0.76 | 0.76 | 60 | 1010.0 |
| 20260507195017 | 15 | 144 | 3.2 | 11.3 | 0.00 | 0.76 | 0.76 | 59 | 1010.1 |
| 20260507194036 | 15 | 119 | 1.6 | 4.8 | 0.00 | 0.76 | 0.76 | 60 | 1010.0 |
| 20260507194017 | 15 | 110 | 1.6 | 4.8 | 0.00 | 0.76 | 0.76 | 60 | 1010.1 |
| 20260507193036 | 15 | 100 | 4.8 | 11.3 | 0.00 | 0.76 | 0.76 | 59 | 1009.9 |
| 20260507193018 | 15 | 99 | 4.8 | 11.3 | 0.00 | 0.76 | 0.76 | 60 | 1009.9 |
| 20260507192017 | 15 | 96 | 4.8 | 11.3 | 0.00 | 0.76 | 0.76 | 58 | 1010.3 |
| 20260507191056 | 15 | 100 | 4.8 | 11.3 | 0.00 | 0.76 | 0.76 | 59 | 1010.4 |
| 20260507191018 | 15 | 99 | 4.8 | 11.3 | 0.00 | 0.76 | 0.76 | 59 | 1010.5 |
| 20260507190016 | 15 | 153 | 3.2 | 9.7 | 0.00 | 0.76 | 0.76 | 58 | 1010.4 |
| 20260507185056 | 15 | 133 | 1.6 | 9.7 | 0.00 | 0.76 | 0.76 | 59 | 1010.8 |
| 20260507185037 | 15 | 99 | 1.6 | 9.7 | 0.00 | 0.76 | 0.76 | 59 | 1010.9 |
| 20260507184057 | 14 | 138 | 3.2 | 11.3 | 0.00 | 0.76 | 0.76 | 59 | 1011.0 |
| 20260507184017 | 14 | 139 | 3.2 | 9.7 | 0.00 | 0.76 | 0.76 | 59 | 1011.2 |
| 20260507183017 | 14 | 96 | 0.0 | 3.2 | 0.00 | 0.76 | 0.76 | 64 | 1010.9 |
| 20260507182156 | 13 | 113 | 1.6 | 8.0 | 0.00 | 0.76 | 0.76 | 63 | 1010.9 |
| 20260507182036 | 13 | 109 | 1.6 | 6.4 | 0.00 | 0.76 | 0.76 | 63 | 1011.0 |
| 20260507181017 | 13 | 111 | 1.6 | 4.8 | 0.00 | 0.76 | 0.76 | 65 | 1011.5 |
| 20260507180016 | 13 | 152 | 1.6 | 6.4 | 0.00 | 0.76 | 0.76 | 61 | 1011.2 |
| 20260507175016 | 13 | 198 | 1.6 | 6.4 | 0.00 | 0.76 | 0.76 | 63 | 1011.6 |
| 20260507174036 | 13 | 209 | 1.6 | 4.8 | 0.00 | 0.76 | 0.76 | 65 | 1011.5 |
| 20260507174016 | 13 | 210 | 1.6 | 4.8 | 0.00 | 0.76 | 0.76 | 65 | 1011.6 |
| 20260507173016 | 13 | 124 | 0.0 | 4.8 | 0.00 | 0.76 | 0.76 | 63 | 1011.7 |
| 20260507172036 | 13 | 119 | 1.6 | 4.8 | 0.00 | 0.76 | 0.76 | 60 | 1011.8 |
| 20260507172016 | 13 | 116 | 1.6 | 4.8 | 0.00 | 0.76 | 0.76 | 60 | 1011.9 |
| 20260507171016 | 13 | 110 | 1.6 | 4.8 | 0.00 | 0.76 | 0.76 | 60 | 1012.4 |
| 20260507170016 | 13 | 38 | 0.0 | 1.6 | 0.00 | 0.76 | 0.76 | 64 | 1012.5 |
| 20260507165016 | 13 | 83 | 0.0 | 3.2 | 0.00 | 0.76 | 0.76 | 59 | 1012.4 |
| 20260507164017 | 13 | 313 | 0.0 | 3.2 | 0.00 | 0.76 | 0.76 | 60 | 1012.6 |
| 20260507163016 | 13 | 319 | 1.6 | 4.8 | 0.00 | 0.76 | 0.76 | 61 | 1012.3 |
| 20260507162016 | 13 | 354 | 1.6 | 4.8 | 0.00 | 0.76 | 0.76 | 60 | 1012.6 |
| 20260507161018 | 13 | 22 | 1.6 | 4.8 | 0.00 | 0.76 | 0.76 | 60 | 1012.8 |
| 20260507161016 | 13 | 26 | 1.6 | 4.8 | 0.00 | 0.76 | 0.76 | 60 | 1012.6 |
| 20260507160056 | 12 | 356 | 1.6 | 3.2 | 0.00 | 0.76 | 0.76 | 63 | 1012.8 |
| 20260507160015 | 12 | 358 | 1.6 | 3.2 | 0.00 | 0.76 | 0.76 | 63 | 1013.0 |
| 20260507155116 | 12 | 355 | 1.6 | 4.8 | 0.00 | 0.76 | 0.76 | 64 | 1012.9 |
| 20260507155015 | 12 | 356 | 1.6 | 4.8 | 0.00 | 0.76 | 0.76 | 64 | 1013.0 |
| 20260507154057 | 12 | 358 | 0.0 | 1.6 | 0.00 | 0.76 | 0.76 | 68 | 1013.0 |
| 20260507154016 | 12 | 352 | 0.0 | 1.6 | 0.00 | 0.76 | 0.76 | 68 | 1012.9 |
| 20260507153016 | 12 | 5 | 0.0 | 3.2 | 0.00 | 0.76 | 0.76 | 67 | 1013.0 |
| 20260507152036 | 12 | 355 | 1.6 | 4.8 | 0.00 | 0.76 | 0.76 | 66 | 1013.1 |
| 20260507152015 | 12 | 353 | 1.6 | 4.8 | 0.00 | 0.76 | 0.76 | 66 | 1012.9 |
| 20260507151016 | 12 | 4 | 3.2 | 6.4 | 0.00 | 0.76 | 0.76 | 64 | 1013.1 |
| 20260507150016 | 12 | 17 | 1.6 | 6.4 | 0.00 | 0.76 | 0.76 | 66 | 1013.1 |
| 20260507145056 | 12 | 360 | 1.6 | 6.4 | 0.00 | 0.79 | 0.76 | 72 | 1013.2 |
| 20260507145016 | 12 | 360 | 1.6 | 6.4 | 0.00 | 0.79 | 0.76 | 73 | 1013.4 |
| 20260507144036 | 12 | 334 | 0.0 | 4.8 | 0.00 | 0.84 | 0.76 | 76 | 1013.3 |
| 20260507144016 | 12 | 341 | 0.0 | 3.2 | 0.00 | 0.84 | 0.76 | 76 | 1013.5 |
| 20260507143036 | 12 | 339 | 0.0 | 1.6 | 0.00 | 0.91 | 0.76 | 77 | 1013.5 |
| 20260507143017 | 12 | 357 | 0.0 | 1.6 | 0.00 | 0.91 | 0.76 | 77 | 1013.7 |
| 20260507142017 | 12 | 348 | 0.0 | 1.6 | 0.00 | 0.94 | 0.76 | 78 | 1013.7 |
| 20260507141058 | 12 | 321 | 1.6 | 6.4 | 0.00 | 0.94 | 0.76 | 78 | 1013.5 |
| 20260507141016 | 12 | 322 | 1.6 | 6.4 | 0.00 | 0.94 | 0.76 | 78 | 1013.7 |
| 20260507140018 | 12 | 343 | 0.0 | 3.2 | 0.00 | 0.97 | 0.76 | 79 | 1013.4 |
| 20260507140016 | 12 | 351 | 0.0 | 3.2 | 0.00 | 0.97 | 0.76 | 79 | 1013.7 |
| 20260507135019 | 12 | 337 | 0.0 | 1.6 | 0.00 | 1.02 | 0.76 | 78 | 1013.6 |
| 20260507135016 | 12 | 348 | 0.0 | 1.6 | 0.00 | 1.02 | 0.76 | 78 | 1013.9 |
| 20260507134018 | 12 | 0.0 | 0.0 | 0.00 | 1.07 | 0.76 | 77 | 1013.8 | |
| 20260507133017 | 12 | 353 | 0.0 | 1.6 | 0.00 | 1.17 | 0.76 | 77 | 1013.8 |
| 20260507132118 | 12 | 352 | 0.0 | 3.2 | 0.00 | 1.19 | 0.76 | 75 | 1013.4 |
| 20260507132017 | 12 | 358 | 0.0 | 3.2 | 0.00 | 1.19 | 0.76 | 75 | 1013.6 |
| 20260507131039 | 12 | 344 | 0.0 | 4.8 | 0.00 | 1.22 | 0.76 | 75 | 1013.3 |
| 20260507131017 | 12 | 347 | 0.0 | 4.8 | 0.00 | 1.22 | 0.76 | 75 | 1013.5 |
| 20260507130019 | 12 | 6 | 0.0 | 6.4 | 0.00 | 1.27 | 0.76 | 76 | 1013.5 |
| 20260507130016 | 12 | 4 | 0.0 | 3.2 | 0.00 | 1.27 | 0.76 | 76 | 1013.7 |
| 20260507125058 | 12 | 358 | 1.6 | 6.4 | 0.00 | 1.27 | 0.76 | 78 | 1013.3 |
| 20260507125017 | 12 | 0 | 1.6 | 6.4 | 0.00 | 1.27 | 0.76 | 78 | 1013.5 |
| 20260507124019 | 12 | 329 | 0.0 | 4.8 | 0.00 | 1.27 | 0.76 | 81 | 1013.3 |
| 20260507123057 | 12 | 327 | 0.0 | 4.8 | 0.00 | 1.27 | 0.76 | 83 | 1013.5 |
| 20260507123018 | 12 | 327 | 0.0 | 4.8 | 0.00 | 1.27 | 0.76 | 83 | 1013.3 |
| 20260507122019 | 12 | 358 | 1.6 | 6.4 | 0.00 | 1.27 | 0.76 | 85 | 1013.1 |
| 20260507122016 | 12 | 1 | 1.6 | 6.4 | 0.00 | 1.27 | 0.76 | 85 | 1013.3 |
| 20260507121017 | 12 | 353 | 1.6 | 8.0 | 0.00 | 1.27 | 0.76 | 87 | 1013.0 |
| 20260507120018 | 12 | 337 | 0.0 | 3.2 | 0.00 | 1.30 | 0.76 | 88 | 1013.3 |
| 20260507120016 | 12 | 356 | 0.0 | 1.6 | 0.00 | 1.30 | 0.76 | 88 | 1013.5 |
| 20260507115018 | 12 | 330 | 1.6 | 4.8 | 0.00 | 1.30 | 0.76 | 88 | 1013.1 |
| 20260507115016 | 12 | 337 | 1.6 | 4.8 | 0.00 | 1.30 | 0.76 | 88 | 1013.3 |
| 20260507114158 | 12 | 308 | 0.0 | 3.2 | 0.00 | 1.30 | 0.76 | 89 | 1012.8 |
| 20260507114016 | 12 | 318 | 0.0 | 3.2 | 0.00 | 1.30 | 0.76 | 89 | 1013.0 |
| 20260507113038 | 12 | 312 | 0.0 | 1.6 | 0.00 | 1.30 | 0.76 | 88 | 1012.7 |
| 20260507113016 | 12 | 335 | 0.0 | 1.6 | 0.00 | 1.30 | 0.76 | 88 | 1012.9 |
| 20260507112038 | 12 | 349 | 0.0 | 3.2 | 0.00 | 1.30 | 0.76 | 89 | 1012.5 |
| 20260507112036 | 12 | 3 | 0.0 | 3.2 | 0.00 | 1.30 | 0.76 | 89 | 1012.8 |
| 20260507111058 | 12 | 334 | 0.0 | 3.2 | 0.00 | 1.30 | 0.76 | 89 | 1012.7 |
| 20260507111036 | 12 | 343 | 0.0 | 3.2 | 0.00 | 1.30 | 0.76 | 89 | 1012.9 |
| 20260507110018 | 12 | 0.0 | 3.2 | 0.00 | 1.30 | 0.76 | 89 | 1012.5 | |
| 20260507110016 | 12 | 0.0 | 0.0 | 0.00 | 1.30 | 0.76 | 89 | 1012.8 | |
| 20260507105018 | 12 | 332 | 0.0 | 1.6 | 0.03 | 1.30 | 0.76 | 89 | 1012.6 |
| 20260507105016 | 12 | 345 | 0.0 | 1.6 | 0.03 | 1.30 | 0.76 | 89 | 1012.8 |
| 20260507104018 | 12 | 342 | 0.0 | 3.2 | 0.03 | 1.30 | 0.76 | 89 | 1012.3 |
| 20260507104016 | 12 | 356 | 0.0 | 1.6 | 0.03 | 1.30 | 0.76 | 89 | 1012.5 |
| 20260507103036 | 12 | 352 | 0.0 | 1.6 | 0.03 | 1.30 | 0.76 | 89 | 1012.3 |
| 20260507103016 | 12 | 359 | 0.0 | 1.6 | 0.03 | 1.30 | 0.76 | 89 | 1012.5 |
| 20260507102138 | 12 | 351 | 0.0 | 3.2 | 0.03 | 1.30 | 0.76 | 89 | 1012.2 |
| 20260507102017 | 12 | 353 | 0.0 | 3.2 | 0.03 | 1.30 | 0.76 | 89 | 1012.4 |
| 20260507101017 | 12 | 0.0 | 0.0 | 0.03 | 1.30 | 0.76 | 89 | 1012.4 | |
| 20260507100038 | 12 | 0.0 | 0.0 | 0.03 | 1.30 | 0.76 | 89 | 1012.2 | |
| 20260507100016 | 12 | 0.0 | 0.0 | 0.03 | 1.30 | 0.76 | 89 | 1012.4 | |
| 20260507095159 | 12 | 0.0 | 0.0 | 0.00 | 1.27 | 0.74 | 89 | 1012.1 | |
| 20260507095016 | 12 | 0.0 | 0.0 | 0.00 | 1.27 | 0.74 | 89 | 1012.3 | |
| 20260507094018 | 12 | 0.0 | 0.0 | 0.00 | 1.27 | 0.74 | 89 | 1012.1 | |
| 20260507094016 | 12 | 0.0 | 0.0 | 0.00 | 1.27 | 0.74 | 89 | 1012.3 | |
| 20260507093016 | 12 | 0.0 | 0.0 | 0.00 | 1.27 | 0.74 | 89 | 1012.3 | |
| 20260507092038 | 12 | 0.0 | 0.0 | 0.00 | 1.27 | 0.74 | 89 | 1011.8 | |
| 20260507092016 | 12 | 0.0 | 0.0 | 0.00 | 1.27 | 0.74 | 89 | 1012.0 | |
| 20260507091018 | 12 | 322 | 0.0 | 1.6 | 0.00 | 1.27 | 0.74 | 89 | 1011.9 |
| 20260507090037 | 12 | 327 | 0.0 | 3.2 | 0.00 | 1.27 | 0.74 | 89 | 1012.1 |
| 20260507090018 | 12 | 311 | 0.0 | 3.2 | 0.00 | 1.27 | 0.74 | 89 | 1011.9 |
| 20260507085038 | 12 | 0.0 | 0.0 | 0.00 | 1.27 | 0.74 | 89 | 1011.9 | |
| 20260507085017 | 12 | 0.0 | 0.0 | 0.00 | 1.27 | 0.74 | 89 | 1012.1 | |
| 20260507084036 | 12 | 352 | 0.0 | 1.6 | 0.00 | 1.27 | 0.74 | 89 | 1011.7 |
| 20260507084017 | 12 | 355 | 0.0 | 1.6 | 0.00 | 1.27 | 0.74 | 89 | 1011.9 |
| 20260507083018 | 12 | 352 | 0.0 | 1.6 | 0.00 | 1.27 | 0.74 | 88 | 1011.9 |
| 20260507082158 | 12 | 309 | 0.0 | 3.2 | 0.00 | 1.27 | 0.74 | 89 | 1011.8 |
| 20260507082016 | 12 | 325 | 0.0 | 1.6 | 0.00 | 1.27 | 0.74 | 89 | 1012.0 |
| 20260507081038 | 12 | 309 | 0.0 | 3.2 | 0.00 | 1.27 | 0.74 | 89 | 1011.6 |
| 20260507081016 | 12 | 315 | 0.0 | 3.2 | 0.00 | 1.27 | 0.74 | 89 | 1011.8 |
| 20260507080158 | 12 | 320 | 0.0 | 3.2 | 0.00 | 1.27 | 0.74 | 89 | 1011.3 |
| 20260507080016 | 12 | 335 | 0.0 | 3.2 | 0.00 | 1.27 | 0.74 | 89 | 1011.5 |
| 20260507075136 | 12 | 332 | 1.6 | 3.2 | 0.00 | 1.27 | 0.74 | 89 | 1011.4 |
| 20260507075018 | 12 | 321 | 1.6 | 3.2 | 0.00 | 1.27 | 0.74 | 89 | 1011.2 |
| 20260507074036 | 12 | 305 | 1.6 | 4.8 | 0.00 | 1.27 | 0.74 | 89 | 1011.3 |
| 20260507074016 | 12 | 314 | 1.6 | 3.2 | 0.00 | 1.27 | 0.74 | 89 | 1011.5 |
| 20260507073036 | 12 | 347 | 1.6 | 6.4 | 0.00 | 1.27 | 0.74 | 89 | 1011.2 |
| 20260507073015 | 12 | 344 | 1.6 | 6.4 | 0.00 | 1.27 | 0.74 | 89 | 1011.0 |
| 20260507072017 | 12 | 352 | 1.6 | 4.8 | 0.00 | 1.27 | 0.74 | 89 | 1011.2 |
| 20260507072015 | 12 | 353 | 1.6 | 4.8 | 0.00 | 1.27 | 0.74 | 89 | 1011.0 |
| 20260507071017 | 13 | 336 | 1.6 | 4.8 | 0.00 | 1.27 | 0.74 | 89 | 1011.1 |
| 20260507071015 | 13 | 333 | 1.6 | 6.4 | 0.00 | 1.27 | 0.74 | 89 | 1010.9 |
| 20260507070018 | 13 | 338 | 1.6 | 3.2 | 0.00 | 1.27 | 0.74 | 89 | 1011.0 |
| 20260507070015 | 13 | 337 | 1.6 | 3.2 | 0.00 | 1.27 | 0.74 | 89 | 1010.8 |
| 20260507065016 | 13 | 353 | 1.6 | 4.8 | 0.00 | 1.27 | 0.74 | 88 | 1011.0 |
| 20260507064016 | 13 | 320 | 3.2 | 8.0 | 0.00 | 1.27 | 0.74 | 89 | 1011.2 |
| 20260507063018 | 13 | 3 | 1.6 | 8.0 | 0.03 | 1.27 | 0.74 | 89 | 1011.1 |
| 20260507063016 | 13 | 1 | 1.6 | 8.0 | 0.03 | 1.27 | 0.74 | 89 | 1010.9 |
| 20260507062035 | 13 | 321 | 1.6 | 6.4 | 0.05 | 1.27 | 0.74 | 89 | 1011.0 |
| 20260507062020 | 13 | 323 | 1.6 | 6.4 | 0.05 | 1.27 | 0.74 | 89 | 1011.2 |
| 20260507061037 | 13 | 329 | 3.2 | 11.3 | 0.08 | 1.27 | 0.74 | 89 | 1011.0 |
| 20260507061015 | 13 | 328 | 3.2 | 14.5 | 0.08 | 1.27 | 0.74 | 89 | 1010.8 |
| 20260507060056 | 14 | 334 | 1.6 | 6.4 | 0.08 | 1.27 | 0.74 | 89 | 1010.4 |
| 20260507060017 | 14 | 336 | 1.6 | 4.8 | 0.08 | 1.27 | 0.74 | 89 | 1010.7 |
| 20260507055019 | 14 | 4 | 1.6 | 6.4 | 0.10 | 1.27 | 0.74 | 88 | 1010.6 |
| 20260507055016 | 14 | 4 | 1.6 | 6.4 | 0.10 | 1.27 | 0.74 | 88 | 1010.4 |
| 20260507054056 | 14 | 346 | 0.0 | 3.2 | 0.15 | 1.27 | 0.74 | 88 | 1011.1 |
| 20260507054015 | 14 | 339 | 0.0 | 3.2 | 0.15 | 1.27 | 0.74 | 88 | 1010.9 |
| 20260507053018 | 14 | 356 | 0.0 | 1.6 | 0.23 | 1.24 | 0.71 | 87 | 1011.3 |
| 20260507053015 | 14 | 332 | 0.0 | 3.2 | 0.23 | 1.24 | 0.71 | 87 | 1011.1 |
| 20260507052018 | 15 | 46 | 1.6 | 3.2 | 0.61 | 1.22 | 0.69 | 86 | 1011.0 |
| 20260507051038 | 15 | 355 | 0.0 | 1.6 | 0.66 | 1.19 | 0.66 | 85 | 1011.1 |
| 20260507051015 | 15 | 349 | 0.0 | 3.2 | 0.66 | 1.19 | 0.66 | 85 | 1010.9 |
| 20260507050116 | 15 | 358 | 0.0 | 4.8 | 0.66 | 1.19 | 0.66 | 84 | 1010.7 |
| 20260507050018 | 15 | 359 | 0.0 | 4.8 | 0.66 | 1.19 | 0.66 | 84 | 1010.9 |
| 20260507045018 | 15 | 0.0 | 0.0 | 0.64 | 1.17 | 0.64 | 83 | 1011.0 | |
| 20260507045015 | 15 | 0.0 | 3.2 | 0.64 | 1.17 | 0.64 | 83 | 1010.8 | |
| 20260507044017 | 16 | 355 | 1.6 | 6.4 | 0.58 | 1.12 | 0.58 | 82 | 1011.1 |
| 20260507044015 | 16 | 354 | 1.6 | 6.4 | 0.58 | 1.12 | 0.58 | 82 | 1010.9 |
| 20260507043037 | 16 | 347 | 1.6 | 6.4 | 0.48 | 1.02 | 0.48 | 80 | 1011.4 |
| 20260507043018 | 16 | 347 | 1.6 | 8.0 | 0.48 | 1.02 | 0.48 | 80 | 1011.2 |
| 20260507042118 | 16 | 342 | 1.6 | 4.8 | 0.08 | 0.61 | 0.08 | 77 | 1010.9 |
| 20260507042016 | 16 | 345 | 1.6 | 4.8 | 0.08 | 0.61 | 0.08 | 77 | 1011.2 |
| 20260507041018 | 17 | 352 | 3.2 | 8.0 | 0.00 | 0.53 | 0.00 | 74 | 1010.8 |
| 20260507040117 | 17 | 356 | 3.2 | 14.5 | 0.00 | 0.53 | 0.00 | 72 | 1010.6 |
| 20260507040019 | 17 | 357 | 4.8 | 14.5 | 0.00 | 0.53 | 0.00 | 72 | 1010.9 |
| 20260507035038 | 17 | 343 | 4.8 | 16.1 | 0.00 | 0.53 | 0.53 | 72 | 1010.5 |
| 20260507035017 | 17 | 342 | 4.8 | 16.1 | 0.00 | 0.53 | 0.53 | 72 | 1010.7 |
| 20260507034037 | 18 | 341 | 4.8 | 12.9 | 0.00 | 0.53 | 0.53 | 74 | 1010.5 |
| 20260507034019 | 18 | 343 | 4.8 | 12.9 | 0.00 | 0.53 | 0.53 | 74 | 1010.7 |
| 20260507033058 | 18 | 336 | 1.6 | 11.3 | 0.00 | 0.53 | 0.53 | 77 | 1010.6 |
| 20260507033038 | 18 | 340 | 1.6 | 11.3 | 0.00 | 0.53 | 0.53 | 77 | 1010.9 |
| 20260507032038 | 18 | 332 | 3.2 | 8.0 | 0.00 | 0.53 | 0.53 | 79 | 1010.4 |
| 20260507031018 | 18 | 2 | 3.2 | 12.9 | 0.00 | 0.53 | 0.53 | 79 | 1010.3 |
| 20260507030018 | 19 | 10 | 3.2 | 8.0 | 0.00 | 0.53 | 0.53 | 80 | 1009.5 |
| 20260507025138 | 19 | 354 | 0.0 | 4.8 | 0.00 | 0.53 | 0.53 | 79 | 1010.0 |
| 20260507025016 | 19 | 355 | 0.0 | 4.8 | 0.00 | 0.53 | 0.53 | 79 | 1010.3 |
| 20260507024057 | 19 | 326 | 1.6 | 4.8 | 0.00 | 0.53 | 0.53 | 80 | 1009.8 |
| 20260507024017 | 19 | 329 | 1.6 | 4.8 | 0.00 | 0.53 | 0.53 | 80 | 1010.1 |
| 20260507023018 | 19 | 309 | 0.0 | 4.8 | 0.00 | 0.53 | 0.53 | 81 | 1009.7 |
| 20260507022037 | 20 | 224 | 1.6 | 6.4 | 0.00 | 0.53 | 0.53 | 81 | 1009.6 |
| 20260507022018 | 20 | 228 | 1.6 | 6.4 | 0.00 | 0.53 | 0.53 | 81 | 1009.8 |
| 20260507021017 | 20 | 332 | 1.6 | 4.8 | 0.00 | 0.53 | 0.53 | 81 | 1009.1 |
| 20260507021015 | 20 | 335 | 1.6 | 4.8 | 0.00 | 0.53 | 0.53 | 81 | 1009.4 |
| 20260507020018 | 20 | 328 | 0.0 | 3.2 | 0.00 | 0.53 | 0.53 | 80 | 1009.8 |
| 20260507015018 | 20 | 210 | 1.6 | 6.4 | 0.00 | 0.53 | 0.53 | 79 | 1009.6 |
| 20260507015016 | 20 | 213 | 1.6 | 6.4 | 0.00 | 0.53 | 0.53 | 79 | 1009.9 |
| 20260507014037 | 20 | 213 | 0.0 | 4.8 | 0.00 | 0.53 | 0.53 | 78 | 1009.5 |
| 20260507014017 | 20 | 218 | 0.0 | 3.2 | 0.00 | 0.53 | 0.53 | 78 | 1009.8 |
| 20260507013017 | 20 | 209 | 0.0 | 4.8 | 0.00 | 0.53 | 0.53 | 78 | 1009.6 |
| 20260507013015 | 20 | 217 | 0.0 | 4.8 | 0.00 | 0.53 | 0.53 | 78 | 1010.0 |
| 20260507012117 | 20 | 198 | 0.0 | 3.2 | 0.00 | 0.53 | 0.53 | 77 | 1009.6 |
| 20260507012019 | 20 | 201 | 0.0 | 3.2 | 0.00 | 0.53 | 0.53 | 77 | 1009.9 |
| 20260507010017 | 20 | 203 | 1.6 | 4.8 | 0.00 | 0.53 | 0.53 | 77 | 1010.2 |
| 20260507005036 | 20 | 339 | 0.0 | 1.6 | 0.00 | 0.53 | 0.53 | 77 | 1010.0 |
| 20260507005017 | 20 | 205 | 0.0 | 1.6 | 0.00 | 0.53 | 0.53 | 77 | 1009.7 |
| 20260507004017 | 20 | 205 | 0.0 | 6.4 | 0.00 | 0.53 | 0.53 | 76 | 1009.4 |
| 20260507003117 | 21 | 189 | 0.0 | 1.6 | 0.00 | 0.53 | 0.53 | 76 | 1009.4 |
| 20260507003018 | 21 | 275 | 0.0 | 1.6 | 0.00 | 0.53 | 0.53 | 76 | 1009.7 |
| 20260507002018 | 21 | 208 | 0.0 | 4.8 | 0.00 | 0.53 | 0.53 | 76 | 1009.8 |
| 20260507001018 | 21 | 201 | 1.6 | 8.0 | 0.00 | 0.53 | 0.53 | 75 | 1009.7 |
| 20260507000137 | 21 | 188 | 1.6 | 6.4 | 0.00 | 0.53 | 0.53 | 76 | 1008.9 |
| 20260507000018 | 21 | 189 | 1.6 | 4.8 | 0.00 | 0.53 | 0.53 | 76 | 1009.3 |
| 20260506235137 | 21 | 232 | 1.6 | 8.0 | 0.00 | 0.53 | 0.53 | 75 | 1009.0 |
| 20260506235018 | 21 | 240 | 1.6 | 4.8 | 0.00 | 0.53 | 0.53 | 75 | 1009.4 |
| 20260506234018 | 21 | 239 | 1.6 | 4.8 | 0.00 | 0.53 | 0.53 | 75 | 1009.1 |
| 20260506233037 | 21 | 210 | 1.6 | 4.8 | 0.00 | 0.53 | 0.53 | 75 | 1008.7 |
| 20260506233018 | 21 | 213 | 1.6 | 4.8 | 0.00 | 0.53 | 0.53 | 75 | 1009.0 |
| 20260506232018 | 21 | 218 | 1.6 | 6.4 | 0.00 | 0.53 | 0.53 | 75 | 1009.1 |
| 20260506231058 | 21 | 217 | 1.6 | 8.0 | 0.00 | 0.53 | 0.53 | 74 | 1008.7 |
| 20260506231018 | 21 | 219 | 1.6 | 8.0 | 0.00 | 0.53 | 0.53 | 74 | 1009.1 |
| 20260506230018 | 21 | 218 | 1.6 | 4.8 | 0.00 | 0.53 | 0.53 | 74 | 1009.0 |
| 20260506225058 | 21 | 209 | 3.2 | 9.7 | 0.00 | 0.53 | 0.53 | 74 | 1008.7 |
| 20260506225036 | 21 | 210 | 3.2 | 9.7 | 0.00 | 0.53 | 0.53 | 74 | 1009.0 |
| 20260506224037 | 21 | 211 | 3.2 | 12.9 | 0.00 | 0.53 | 0.53 | 74 | 1008.6 |
| 20260506224016 | 21 | 211 | 3.2 | 12.9 | 0.00 | 0.53 | 0.53 | 74 | 1009.0 |
| 20260506223117 | 21 | 205 | 1.6 | 8.0 | 0.00 | 0.53 | 0.53 | 74 | 1008.7 |
| 20260506223037 | 21 | 209 | 1.6 | 8.0 | 0.00 | 0.53 | 0.53 | 74 | 1009.1 |
| 20260506222038 | 21 | 208 | 1.6 | 6.4 | 0.00 | 0.53 | 0.53 | 74 | 1009.2 |
| 20260506222017 | 21 | 202 | 1.6 | 6.4 | 0.00 | 0.53 | 0.53 | 74 | 1008.8 |
| 20260506221037 | 21 | 193 | 3.2 | 9.7 | 0.00 | 0.53 | 0.53 | 74 | 1008.8 |
| 20260506221017 | 21 | 193 | 3.2 | 9.7 | 0.00 | 0.53 | 0.53 | 74 | 1009.1 |
| 20260506220019 | 21 | 206 | 4.8 | 14.5 | 0.00 | 0.53 | 0.53 | 74 | 1009.2 |
| 20260506215037 | 21 | 220 | 3.2 | 9.7 | 0.00 | 0.53 | 0.53 | 74 | 1008.7 |
| 20260506215017 | 21 | 221 | 3.2 | 9.7 | 0.00 | 0.53 | 0.53 | 74 | 1009.1 |
| 20260506214017 | 21 | 206 | 6.4 | 14.5 | 0.00 | 0.53 | 0.53 | 74 | 1009.2 |
| 20260506213038 | 21 | 221 | 3.2 | 12.9 | 0.00 | 0.53 | 0.53 | 74 | 1008.8 |
| 20260506213017 | 21 | 222 | 3.2 | 11.3 | 0.00 | 0.53 | 0.53 | 74 | 1009.2 |
| 20260506212017 | 21 | 225 | 4.8 | 17.7 | 0.00 | 0.53 | 0.53 | 74 | 1009.1 |
| 20260506211037 | 21 | 229 | 3.2 | 14.5 | 0.00 | 0.53 | 0.53 | 74 | 1008.7 |
| 20260506211017 | 21 | 228 | 3.2 | 12.9 | 0.00 | 0.53 | 0.53 | 74 | 1009.0 |
| 20260506210117 | 21 | 207 | 6.4 | 17.7 | 0.00 | 0.53 | 0.53 | 74 | 1008.6 |
| 20260506210017 | 21 | 208 | 6.4 | 17.7 | 0.00 | 0.53 | 0.53 | 74 | 1009.0 |